Global Enterprise — 3FCJ6 — position and weather

sailwx.info

Track history (hours):
 
Tides and Currents Weather Stations Pressure Air Temp Water Temp Dewpoint Dewpoint Depression Visibility Wind Speed Wind Dir Waves Ship Positions

Global Enterprise

Last reported at 2014-Dec-05 20:33 UTC. Time now 2014-Dec-18 21:44 UTC.
Position N 31°06' E 122°27'.
Warning: this ship's position is 13 days out of date.

Length 290 m; draft 8.6 m.

Type: Cargo ship. MMSI: 356308000.

Date/timePositionNaut miles runAvg speedWind from/ knotsBaromVisibWave heightAir tempDewpointWater temp
2014-Dec-05 20:33N 31°06' E 122°27'9 9.3
2014-Dec-05 19:34N 31°07' E 122°16'1211.8
2014-Dec-05 18:33N 31°14' E 122°05'1110.7
2014-Dec-05 17:33N 31°16' E 121°53'1010.2
2014-Dec-05 16:33N 31°20' E 121°42'1010.2
2014-Dec-05 15:33N 31°25' E 121°31'6 5.9
2014-Dec-05 14:33N 31°29' E 121°26'10 9.6
2014-Dec-05 13:33N 31°35' E 121°18'1211.9
2014-Dec-05 12:33N 31°43' E 121°07'1110.8
2014-Dec-05 11:33N 31°48' E 120°56'1313.2
2014-Dec-05 10:33N 31°60' E 120°49'10 9.5
2014-Dec-05 09:32N 31°60' E 120°38'0 0.2
2014-Dec-05 08:32N 31°59' E 120°38'0 0.0
2014-Dec-05 07:29N 31°59' E 120°38'0 0.0
2014-Dec-05 06:29N 31°59' E 120°38'0 0.0
2014-Dec-05 05:32N 31°59' E 120°38'0 0.0
2014-Dec-05 04:29N 31°59' E 120°38'0 0.0
2014-Dec-05 03:20N 31°59' E 120°38'0 0.0
2014-Dec-05 02:32N 31°59' E 120°38'0 0.0
2014-Dec-05 01:32N 31°59' E 120°38'0 0.0
2014-Dec-05 00:32N 31°59' E 120°38'0 0.0
2014-Dec-04 23:32N 31°59' E 120°38'0 0.0
2014-Dec-04 22:32N 31°59' E 120°38'0 0.0
2014-Dec-04 21:32N 31°59' E 120°38'0 0.0
2014-Dec-04 20:32N 31°59' E 120°38'0 0.0
2014-Dec-04 19:32N 31°59' E 120°38'0 0.0
2014-Dec-04 18:32N 31°59' E 120°38'0 0.0
2014-Dec-04 17:29N 31°59' E 120°38'0 0.0
2014-Dec-04 16:32N 31°59' E 120°38'0 0.0
2014-Dec-04 15:32N 31°59' E 120°38'0 0.0
2014-Dec-04 14:32N 31°59' E 120°38'0 0.0
2014-Dec-04 13:29N 31°59' E 120°38'0 0.0
2014-Dec-04 12:32N 31°59' E 120°38'0 0.0
2014-Dec-04 11:32N 31°59' E 120°38'0 0.0
2014-Dec-04 10:29N 31°59' E 120°38'0 0.0
2014-Dec-04 09:32N 31°59' E 120°38'0 0.0
2014-Dec-04 08:29N 31°59' E 120°38'0 0.0
2014-Dec-04 07:29N 31°59' E 120°38'0 0.0
2014-Dec-04 06:32N 31°59' E 120°38'0 0.0
2014-Dec-04 05:32N 31°59' E 120°38'0 0.0
2014-Dec-04 04:32N 31°59' E 120°38'0 0.0
2014-Dec-04 03:26N 31°59' E 120°38'0 0.0
2014-Dec-04 02:32N 31°59' E 120°38'0 0.0
2014-Dec-04 01:32N 31°59' E 120°38'0 0.0
2014-Dec-04 00:32N 31°59' E 120°38'0 0.0
2014-Dec-03 23:32N 31°59' E 120°38'0 0.0
2014-Dec-03 22:32N 31°59' E 120°38'0 0.0
2014-Dec-03 21:32N 31°59' E 120°38'0 0.0
2014-Dec-03 20:32N 31°59' E 120°38'0 0.0
2014-Dec-03 19:32N 31°59' E 120°38'0 0.0
2014-Dec-03 18:29N 31°59' E 120°38'0 0.0
2014-Dec-03 17:32N 31°59' E 120°38'0 0.0
2014-Dec-03 16:32N 31°59' E 120°38'0 0.0
2014-Dec-03 15:32N 31°59' E 120°38'0 0.0
2014-Dec-03 14:32N 31°59' E 120°38'0 0.0
2014-Dec-03 13:32N 31°59' E 120°38'0 0.0
2014-Dec-03 12:32N 31°59' E 120°38'0 0.0
2014-Dec-03 11:29N 31°59' E 120°38'0 0.0
2014-Dec-03 10:32N 31°59' E 120°38'0 0.0
2014-Dec-03 09:32N 31°59' E 120°38'0 0.0
2014-Dec-03 08:32N 31°59' E 120°38'0 0.0
2014-Dec-03 07:34N 31°59' E 120°38'6 5.9
2014-Dec-03 06:33N 32°01' E 120°45'1010.1
2014-Dec-03 05:34N 31°53' E 120°53'1010.5
2014-Dec-03 04:33N 31°46' E 121°02'1312.9
2014-Dec-03 03:33N 31°39' E 121°15'1211.6
2014-Dec-03 02:33N 31°31' E 121°24'10 9.8
2014-Dec-03 01:33N 31°24' E 121°33'9 9.2
2014-Dec-03 00:33N 31°20' E 121°42'1010.1
2014-Dec-02 23:33N 31°16' E 121°53'1212.1
2014-Dec-02 22:33N 31°13' E 122°07'1312.6
2014-Dec-02 21:33N 31°06' E 122°19'13 6.2
2014-Dec-02 19:23N 31°12' E 122°34'  
2014-Nov-29 23:04N 31°14' E 122°42'0 0.0
2014-Nov-29 21:07N 31°14' E 122°42'2 2.8
2014-Nov-29 20:32N 31°14' E 122°43'84 8.4
2014-Nov-29 10:33N 29°50' E 122°50'1413.8
2014-Nov-29 09:33N 29°41' E 122°38'1211.8
2014-Nov-29 08:33N 29°43' E 122°24'1010.2
2014-Nov-29 07:33N 29°48' E 122°15'1110.5
2014-Nov-29 06:33N 29°55' E 122°06'8 8.3
2014-Nov-29 05:33N 30°00' E 121°58'2 0.4
2014-Nov-29 01:33N 30°02' E 121°59'0 0.0
2014-Nov-29 00:33N 30°02' E 121°59'0 0.0
2014-Nov-28 23:27N 30°02' E 121°59'0 0.0
2014-Nov-28 22:21N 30°02' E 121°59'0 0.0
2014-Nov-28 18:21N 30°02' E 121°59'0 0.0
2014-Nov-28 15:27N 30°02' E 121°59'0 0.0
2014-Nov-28 10:21N 30°02' E 121°59'0 0.0
2014-Nov-28 03:21N 30°02' E 121°59'0 0.0
2014-Nov-28 02:15N 30°02' E 121°59'0 0.0
2014-Nov-27 23:33N 30°02' E 121°59'0 0.0
2014-Nov-27 22:27N 30°02' E 121°59'0 0.0
2014-Nov-27 21:09N 30°02' E 121°59'0 0.0
2014-Nov-27 20:27N 30°02' E 121°59'0 0.0
2014-Nov-27 19:27N 30°02' E 121°59'0 0.0
2014-Nov-27 18:33N 30°02' E 121°59'0 0.0
2014-Nov-27 17:33N 30°02' E 121°59'0 0.0
2014-Nov-27 15:21N 30°02' E 121°59'0 0.0
2014-Nov-27 14:03N 30°02' E 121°59'0 0.7
2014-Nov-27 13:33N 30°02' E 121°59'2 0.3
2014-Nov-27 07:31N 29°60' E 121°58'1 0.4
2014-Nov-27 05:33N 29°60' E 121°57'8 8.5
2014-Nov-27 04:33N 29°55' E 122°06'1212.2
2014-Nov-27 03:33N 29°47' E 122°16'8 8.0
2014-Nov-27 02:33N 29°43' E 122°24'9 8.7
2014-Nov-27 01:33N 29°43' E 122°34'5 4.4
2014-Nov-27 00:29N 29°42' E 122°39'0 0.0
2014-Nov-26 22:17N 29°41' E 122°39'0 0.0
2014-Nov-26 07:23N 29°41' E 122°39'0 0.1
2014-Nov-26 05:23N 29°41' E 122°39'  
Track history (hours):
 
Tides and Currents Weather Stations Pressure Air Temp Water Temp Dewpoint Dewpoint Depression Visibility Wind Speed Wind Dir Waves Ship Positions

Global Enterprise

Last reported at 2014-Dec-05 20:33 UTC. Time now 2014-Dec-18 21:44 UTC.
Position N 31°06' E 122°27'.
Warning: this ship's position is 13 days out of date.

Length 290 m; draft 8.6 m.

Type: Cargo ship. MMSI: 356308000.

Date/timePositionNaut miles runAvg speedWind from/ knotsBaromVisibWave heightAir tempDewpointWater temp
2014-Dec-05 20:33N 31°06' E 122°27'9 9.3
2014-Dec-05 19:34N 31°07' E 122°16'1211.8
2014-Dec-05 18:33N 31°14' E 122°05'1110.7
2014-Dec-05 17:33N 31°16' E 121°53'1010.2
2014-Dec-05 16:33N 31°20' E 121°42'1010.2
2014-Dec-05 15:33N 31°25' E 121°31'6 5.9
2014-Dec-05 14:33N 31°29' E 121°26'10 9.6
2014-Dec-05 13:33N 31°35' E 121°18'1211.9
2014-Dec-05 12:33N 31°43' E 121°07'1110.8
2014-Dec-05 11:33N 31°48' E 120°56'1313.2
2014-Dec-05 10:33N 31°60' E 120°49'10 9.5
2014-Dec-05 09:32N 31°60' E 120°38'0 0.2
2014-Dec-05 08:32N 31°59' E 120°38'0 0.0
2014-Dec-05 07:29N 31°59' E 120°38'0 0.0
2014-Dec-05 06:29N 31°59' E 120°38'0 0.0
2014-Dec-05 05:32N 31°59' E 120°38'0 0.0
2014-Dec-05 04:29N 31°59' E 120°38'0 0.0
2014-Dec-05 03:20N 31°59' E 120°38'0 0.0
2014-Dec-05 02:32N 31°59' E 120°38'0 0.0
2014-Dec-05 01:32N 31°59' E 120°38'0 0.0
2014-Dec-05 00:32N 31°59' E 120°38'0 0.0
2014-Dec-04 23:32N 31°59' E 120°38'0 0.0
2014-Dec-04 22:32N 31°59' E 120°38'0 0.0
2014-Dec-04 21:32N 31°59' E 120°38'0 0.0
2014-Dec-04 20:32N 31°59' E 120°38'0 0.0
2014-Dec-04 19:32N 31°59' E 120°38'0 0.0
2014-Dec-04 18:32N 31°59' E 120°38'0 0.0
2014-Dec-04 17:29N 31°59' E 120°38'0 0.0
2014-Dec-04 16:32N 31°59' E 120°38'0 0.0
2014-Dec-04 15:32N 31°59' E 120°38'0 0.0
2014-Dec-04 14:32N 31°59' E 120°38'0 0.0
2014-Dec-04 13:29N 31°59' E 120°38'0 0.0
2014-Dec-04 12:32N 31°59' E 120°38'0 0.0
2014-Dec-04 11:32N 31°59' E 120°38'0 0.0
2014-Dec-04 10:29N 31°59' E 120°38'0 0.0
2014-Dec-04 09:32N 31°59' E 120°38'0 0.0
2014-Dec-04 08:29N 31°59' E 120°38'0 0.0
2014-Dec-04 07:29N 31°59' E 120°38'0 0.0
2014-Dec-04 06:32N 31°59' E 120°38'0 0.0
2014-Dec-04 05:32N 31°59' E 120°38'0 0.0
2014-Dec-04 04:32N 31°59' E 120°38'0 0.0
2014-Dec-04 03:26N 31°59' E 120°38'0 0.0
2014-Dec-04 02:32N 31°59' E 120°38'0 0.0
2014-Dec-04 01:32N 31°59' E 120°38'0 0.0
2014-Dec-04 00:32N 31°59' E 120°38'0 0.0
2014-Dec-03 23:32N 31°59' E 120°38'0 0.0
2014-Dec-03 22:32N 31°59' E 120°38'0 0.0
2014-Dec-03 21:32N 31°59' E 120°38'0 0.0
2014-Dec-03 20:32N 31°59' E 120°38'0 0.0
2014-Dec-03 19:32N 31°59' E 120°38'0 0.0
2014-Dec-03 18:29N 31°59' E 120°38'0 0.0
2014-Dec-03 17:32N 31°59' E 120°38'0 0.0
2014-Dec-03 16:32N 31°59' E 120°38'0 0.0
2014-Dec-03 15:32N 31°59' E 120°38'0 0.0
2014-Dec-03 14:32N 31°59' E 120°38'0 0.0
2014-Dec-03 13:32N 31°59' E 120°38'0 0.0
2014-Dec-03 12:32N 31°59' E 120°38'0 0.0
2014-Dec-03 11:29N 31°59' E 120°38'0 0.0
2014-Dec-03 10:32N 31°59' E 120°38'0 0.0
2014-Dec-03 09:32N 31°59' E 120°38'0 0.0
2014-Dec-03 08:32N 31°59' E 120°38'0 0.0
2014-Dec-03 07:34N 31°59' E 120°38'6 5.9
2014-Dec-03 06:33N 32°01' E 120°45'1010.1
2014-Dec-03 05:34N 31°53' E 120°53'1010.5
2014-Dec-03 04:33N 31°46' E 121°02'1312.9
2014-Dec-03 03:33N 31°39' E 121°15'1211.6
2014-Dec-03 02:33N 31°31' E 121°24'10 9.8
2014-Dec-03 01:33N 31°24' E 121°33'9 9.2
2014-Dec-03 00:33N 31°20' E 121°42'1010.1
2014-Dec-02 23:33N 31°16' E 121°53'1212.1
2014-Dec-02 22:33N 31°13' E 122°07'1312.6
2014-Dec-02 21:33N 31°06' E 122°19'13 6.2
2014-Dec-02 19:23N 31°12' E 122°34'  
2014-Nov-29 23:04N 31°14' E 122°42'0 0.0
2014-Nov-29 21:07N 31°14' E 122°42'2 2.8
2014-Nov-29 20:32N 31°14' E 122°43'84 8.4
2014-Nov-29 10:33N 29°50' E 122°50'1413.8
2014-Nov-29 09:33N 29°41' E 122°38'1211.8
2014-Nov-29 08:33N 29°43' E 122°24'1010.2
2014-Nov-29 07:33N 29°48' E 122°15'1110.5
2014-Nov-29 06:33N 29°55' E 122°06'8 8.3
2014-Nov-29 05:33N 30°00' E 121°58'2 0.4
2014-Nov-29 01:33N 30°02' E 121°59'0 0.0
2014-Nov-29 00:33N 30°02' E 121°59'0 0.0
2014-Nov-28 23:27N 30°02' E 121°59'0 0.0
2014-Nov-28 22:21N 30°02' E 121°59'0 0.0
2014-Nov-28 18:21N 30°02' E 121°59'0 0.0
2014-Nov-28 15:27N 30°02' E 121°59'0 0.0
2014-Nov-28 10:21N 30°02' E 121°59'0 0.0
2014-Nov-28 03:21N 30°02' E 121°59'0 0.0
2014-Nov-28 02:15N 30°02' E 121°59'0 0.0
2014-Nov-27 23:33N 30°02' E 121°59'0 0.0
2014-Nov-27 22:27N 30°02' E 121°59'0 0.0
2014-Nov-27 21:09N 30°02' E 121°59'0 0.0
2014-Nov-27 20:27N 30°02' E 121°59'0 0.0
2014-Nov-27 19:27N 30°02' E 121°59'0 0.0
2014-Nov-27 18:33N 30°02' E 121°59'0 0.0
2014-Nov-27 17:33N 30°02' E 121°59'0 0.0
2014-Nov-27 15:21N 30°02' E 121°59'0 0.0
2014-Nov-27 14:03N 30°02' E 121°59'0 0.7
2014-Nov-27 13:33N 30°02' E 121°59'2 0.3
2014-Nov-27 07:31N 29°60' E 121°58'1 0.4
2014-Nov-27 05:33N 29°60' E 121°57'8 8.5
2014-Nov-27 04:33N 29°55' E 122°06'1212.2
2014-Nov-27 03:33N 29°47' E 122°16'8 8.0
2014-Nov-27 02:33N 29°43' E 122°24'9 8.7
2014-Nov-27 01:33N 29°43' E 122°34'5 4.4
2014-Nov-27 00:29N 29°42' E 122°39'0 0.0
2014-Nov-26 22:17N 29°41' E 122°39'0 0.0
2014-Nov-26 07:23N 29°41' E 122°39'0 0.1
2014-Nov-26 05:23N 29°41' E 122°39'  

Dump ship's entire track history